sensor_id;sensor_type;location;lat;lon;timestamp;pressure;altitude;pressure_sealevel;temperature;humidity
80509;BME280;69838;52.602;13.434;2024-03-02T00:00:12;99981.56;;;4.26;100.00
80509;BME280;69838;52.602;13.434;2024-03-02T00:00:58;99982.44;;;4.26;100.00
80509;BME280;69838;52.602;13.434;2024-03-02T00:01:44;99977.09;;;4.26;100.00
80509;BME280;69838;52.602;13.434;2024-03-02T00:02:30;99978.09;;;4.24;100.00
80509;BME280;69838;52.602;13.434;2024-03-02T00:03:15;99975.47;;;4.22;100.00
80509;BME280;69838;52.602;13.434;2024-03-02T00:04:03;99970.22;;;4.19;100.00
80509;BME280;69838;52.602;13.434;2024-03-02T00:04:49;99972.84;;;4.20;100.00
80509;BME280;69838;52.602;13.434;2024-03-02T00:05:34;99980.91;;;4.19;100.00
80509;BME280;69838;52.602;13.434;2024-03-02T00:06:21;99982.66;;;4.20;100.00
80509;BME280;69838;52.602;13.434;2024-03-02T00:07:06;99972.13;;;4.15;100.00
80509;BME280;69838;52.602;13.434;2024-03-02T00:07:54;99976.44;;;4.19;100.00
80509;BME280;69838;52.602;13.434;2024-03-02T00:08:40;99973.81;;;4.18;100.00
80509;BME280;69838;52.602;13.434;2024-03-02T00:09:26;99972.91;;;4.19;100.00
80509;BME280;69838;52.602;13.434;2024-03-02T00:10:16;99979.06;;;4.21;100.00
80509;BME280;69838;52.602;13.434;2024-03-02T00:11:04;99973.75;;;4.19;100.00
80509;BME280;69838;52.602;13.434;2024-03-02T00:11:50;99971.13;;;4.18;100.00
80509;BME280;69838;52.602;13.434;2024-03-02T00:12:37;99976.38;;;4.21;100.00
80509;BME280;69838;52.602;13.434;2024-03-02T00:13:22;99973.72;;;4.21;100.00
80509;BME280;69838;52.602;13.434;2024-03-02T00:14:08;99973.75;;;4.19;100.00
80509;BME280;69838;52.602;13.434;2024-03-02T00:14:54;99971.09;;;4.19;100.00
80509;BME280;69838;52.602;13.434;2024-03-02T00:15:41;99975.53;;;4.20;100.00
80509;BME280;69838;52.602;13.434;2024-03-02T00:16:30;99961.34;;;4.18;100.00
80509;BME280;69838;52.602;13.434;2024-03-02T00:17:21;99968.38;;;4.21;100.00
80509;BME280;69838;52.602;13.434;2024-03-02T00:18:11;99965.66;;;4.23;100.00
80509;BME280;69838;52.602;13.434;2024-03-02T00:19:01;99966.50;;;4.23;100.00
80509;BME280;69838;52.602;13.434;2024-03-02T00:19:47;99970.00;;;4.25;100.00
80509;BME280;69838;52.602;13.434;2024-03-02T00:20:33;99961.06;;;4.26;100.00
80509;BME280;69838;52.602;13.434;2024-03-02T00:21:18;99963.75;;;4.26;100.00
80509;BME280;69838;52.602;13.434;2024-03-02T00:22:07;99962.81;;;4.27;100.00
80509;BME280;69838;52.602;13.434;2024-03-02T00:22:55;99961.06;;;4.26;100.00
80509;BME280;69838;52.602;13.434;2024-03-02T00:23:45;99962.81;;;4.27;100.00
80509;BME280;69838;52.602;13.434;2024-03-02T00:24:33;99959.25;;;4.27;100.00
80509;BME280;69838;52.602;13.434;2024-03-02T00:25:20;99961.06;;;4.26;100.00
80509;BME280;69838;52.602;13.434;2024-03-02T00:26:06;99959.25;;;4.27;100.00
80509;BME280;69838;52.602;13.434;2024-03-02T00:26:53;99962.81;;;4.27;100.00
80509;BME280;69838;52.602;13.434;2024-03-02T00:27:39;99961.88;;;4.28;100.00
80509;BME280;69838;52.602;13.434;2024-03-02T00:28:26;99958.25;;;4.31;100.00
80509;BME280;69838;52.602;13.434;2024-03-02T00:29:15;99960.63;;;4.38;100.00
80509;BME280;69838;52.602;13.434;2024-03-02T00:30:06;99965.13;;;4.38;100.00
80509;BME280;69838;52.602;13.434;2024-03-02T00:30:59;99954.44;;;4.38;100.00
80509;BME280;69838;52.602;13.434;2024-03-02T00:31:47;99958.78;;;4.40;100.00
80509;BME280;69838;52.602;13.434;2024-03-02T00:32:34;99947.09;;;4.43;100.00
80509;BME280;69838;52.602;13.434;2024-03-02T00:33:20;99956.00;;;4.44;100.00
80509;BME280;69838;52.602;13.434;2024-03-02T00:34:07;99953.19;;;4.47;100.00
80509;BME280;69838;52.602;13.434;2024-03-02T00:34:52;99962.06;;;4.49;100.00
80509;BME280;69838;52.602;13.434;2024-03-02T00:35:38;99955.78;;;4.50;100.00
80509;BME280;69838;52.602;13.434;2024-03-02T00:36:26;99953.19;;;4.47;100.00
80509;BME280;69838;52.602;13.434;2024-03-02T00:37:11;99956.91;;;4.43;100.00
80509;BME280;69838;52.602;13.434;2024-03-02T00:37:58;99956.00;;;4.44;100.00
80509;BME280;69838;52.602;13.434;2024-03-02T00:38:46;99950.75;;;4.40;100.00
80509;BME280;69838;52.602;13.434;2024-03-02T00:39:31;99955.19;;;4.42;100.00
80509;BME280;69838;52.602;13.434;2024-03-02T00:40:18;99948.00;;;4.44;100.00
80509;BME280;69838;52.602;13.434;2024-03-02T00:41:06;99954.25;;;4.43;100.00
80509;BME280;69838;52.602;13.434;2024-03-02T00:41:52;99948.00;;;4.44;100.00
80509;BME280;69838;52.602;13.434;2024-03-02T00:42:39;99948.84;;;4.44;100.00
80509;BME280;69838;52.602;13.434;2024-03-02T00:43:45;99943.50;;;4.44;100.00
80509;BME280;69838;52.602;13.434;2024-03-02T00:44:33;99947.84;;;4.47;100.00
80509;BME280;69838;52.602;13.434;2024-03-02T00:45:21;99951.38;;;4.49;100.00
80509;BME280;69838;52.602;13.434;2024-03-02T00:46:06;99950.41;;;4.50;100.00
80509;BME280;69838;52.602;13.434;2024-03-02T00:46:53;99946.88;;;4.49;100.00
80509;BME280;69838;52.602;13.434;2024-03-02T00:47:39;99951.38;;;4.49;100.00
80509;BME280;69838;52.602;13.434;2024-03-02T00:48:24;99947.69;;;4.51;100.00
80509;BME280;69838;52.602;13.434;2024-03-02T00:49:15;99949.50;;;4.51;100.00
80509;BME280;69838;52.602;13.434;2024-03-02T00:50:05;99948.56;;;4.52;100.00
80509;BME280;69838;52.602;13.434;2024-03-02T00:50:52;99945.88;;;4.52;100.00
80509;BME280;69838;52.602;13.434;2024-03-02T00:51:39;99945.88;;;4.52;100.00
80509;BME280;69838;52.602;13.434;2024-03-02T00:52:26;99946.88;;;4.49;100.00
80509;BME280;69838;52.602;13.434;2024-03-02T00:53:12;99940.69;;;4.49;100.00
80509;BME280;69838;52.602;13.434;2024-03-02T00:53:59;99952.22;;;4.49;100.00
80509;BME280;69838;52.602;13.434;2024-03-02T00:54:46;99948.63;;;4.50;100.00
80509;BME280;69838;52.602;13.434;2024-03-02T00:55:35;99943.25;;;4.50;100.00
80509;BME280;69838;52.602;13.434;2024-03-02T00:56:23;99948.63;;;4.50;100.00
80509;BME280;69838;52.602;13.434;2024-03-02T00:57:10;99945.13;;;4.48;100.00
80509;BME280;69838;52.602;13.434;2024-03-02T00:57:57;99951.38;;;4.49;100.00
80509;BME280;69838;52.602;13.434;2024-03-02T00:58:43;99949.50;;;4.51;100.00
80509;BME280;69838;52.602;13.434;2024-03-02T00:59:29;99947.75;;;4.50;100.00
80509;BME280;69838;52.602;13.434;2024-03-02T01:00:17;99943.25;;;4.50;100.00
80509;BME280;69838;52.602;13.434;2024-03-02T01:01:04;99951.22;;;4.52;100.00
80509;BME280;69838;52.602;13.434;2024-03-02T01:01:49;99954.03;;;4.49;100.00
80509;BME280;69838;52.602;13.434;2024-03-02T01:02:36;99951.38;;;4.49;100.00
80509;BME280;69838;52.602;13.434;2024-03-02T01:03:21;99949.56;;;4.49;100.00
80509;BME280;69838;52.602;13.434;2024-03-02T01:04:06;99947.69;;;4.51;100.00
80509;BME280;69838;52.602;13.434;2024-03-02T01:04:52;99945.88;;;4.52;100.00
80509;BME280;69838;52.602;13.434;2024-03-02T01:05:41;99952.00;;;4.55;100.00
80509;BME280;69838;52.602;13.434;2024-03-02T01:06:26;99949.31;;;4.55;100.00
80509;BME280;69838;52.602;13.434;2024-03-02T01:07:13;99947.53;;;4.56;100.00
80509;BME280;69838;52.602;13.434;2024-03-02T01:07:58;99952.88;;;4.56;100.00
80509;BME280;69838;52.602;13.434;2024-03-02T01:08:44;99949.28;;;4.57;100.00
80509;BME280;69838;52.602;13.434;2024-03-02T01:09:31;99953.72;;;4.58;100.00
80509;BME280;69838;52.602;13.434;2024-03-02T01:10:16;99951.91;;;4.58;100.00
80509;BME280;69838;52.602;13.434;2024-03-02T01:11:02;99949.16;;;4.60;100.00
80509;BME280;69838;52.602;13.434;2024-03-02T01:11:50;99952.66;;;4.62;100.00
80509;BME280;69838;52.602;13.434;2024-03-02T01:12:35;99947.31;;;4.62;100.00
80509;BME280;69838;52.602;13.434;2024-03-02T01:13:21;99949.06;;;4.63;100.00
80509;BME280;69838;52.602;13.434;2024-03-02T01:14:08;99954.41;;;4.63;100.00
80509;BME280;69838;52.602;13.434;2024-03-02T01:14:53;99944.63;;;4.62;100.00
80509;BME280;69838;52.602;13.434;2024-03-02T01:15:39;99947.31;;;4.62;100.00
80509;BME280;69838;52.602;13.434;2024-03-02T01:16:25;99958.75;;;4.66;100.00
80509;BME280;69838;52.602;13.434;2024-03-02T01:17:10;99948.06;;;4.66;100.00
80509;BME280;69838;52.602;13.434;2024-03-02T01:17:56;99948.06;;;4.66;100.00
80509;BME280;69838;52.602;13.434;2024-03-02T01:18:42;99945.34;;;4.67;100.00
80509;BME280;69838;52.602;13.434;2024-03-02T01:19:28;99940.00;;;4.67;100.00
80509;BME280;69838;52.602;13.434;2024-03-02T01:20:14;99942.63;;;4.69;100.00
80509;BME280;69838;52.602;13.434;2024-03-02T01:21:00;99941.72;;;4.68;100.00
80509;BME280;69838;52.602;13.434;2024-03-02T01:21:46;99947.97;;;4.69;100.00
80509;BME280;69838;52.602;13.434;2024-03-02T01:22:33;99942.63;;;4.69;100.00
80509;BME280;69838;52.602;13.434;2024-03-02T01:23:18;99944.38;;;4.68;100.00
80509;BME280;69838;52.602;13.434;2024-03-02T01:24:04;99939.13;;;4.67;100.00
80509;BME280;69838;52.602;13.434;2024-03-02T01:24:51;99939.94;;;4.69;100.00
80509;BME280;69838;52.602;13.434;2024-03-02T01:25:36;99940.00;;;4.67;100.00
80509;BME280;69838;52.602;13.434;2024-03-02T01:26:22;99938.13;;;4.69;100.00
80509;BME280;69838;52.602;13.434;2024-03-02T01:27:09;99945.16;;;4.72;100.00
80509;BME280;69838;52.602;13.434;2024-03-02T01:27:55;99938.88;;;4.73;100.00
80509;BME280;69838;52.602;13.434;2024-03-02T01:28:40;99934.41;;;4.73;100.00
80509;BME280;69838;52.602;13.434;2024-03-02T01:29:26;99941.50;;;4.74;100.00
80509;BME280;69838;52.602;13.434;2024-03-02T01:30:12;99940.66;;;4.74;100.00
80509;BME280;69838;52.602;13.434;2024-03-02T01:30:57;99939.75;;;4.73;100.00
80509;BME280;69838;52.602;13.434;2024-03-02T01:31:44;99940.69;;;4.72;100.00
80509;BME280;69838;52.602;13.434;2024-03-02T01:32:30;99945.09;;;4.73;100.00
80509;BME280;69838;52.602;13.434;2024-03-02T01:33:16;99930.81;;;4.74;100.00
80509;BME280;69838;52.602;13.434;2024-03-02T01:34:02;99934.41;;;4.73;100.00
80509;BME280;69838;52.602;13.434;2024-03-02T01:34:48;99942.44;;;4.73;100.00
80509;BME280;69838;52.602;13.434;2024-03-02T01:35:33;99939.69;;;4.75;100.00
80509;BME280;69838;52.602;13.434;2024-03-02T01:36:20;99930.81;;;4.74;100.00
80509;BME280;69838;52.602;13.434;2024-03-02T01:37:06;99930.72;;;4.77;100.00
80509;BME280;69838;52.602;13.434;2024-03-02T01:37:52;99928.03;;;4.77;100.00
80509;BME280;69838;52.602;13.434;2024-03-02T01:38:37;99928.94;;;4.76;100.00
80509;BME280;69838;52.602;13.434;2024-03-02T01:39:24;99924.47;;;4.77;100.00
80509;BME280;69838;52.602;13.434;2024-03-02T01:40:10;99934.28;;;4.76;100.00
80509;BME280;69838;52.602;13.434;2024-03-02T01:40:56;99927.09;;;4.78;100.00
80509;BME280;69838;52.602;13.434;2024-03-02T01:41:43;99936.91;;;4.78;100.00
80509;BME280;69838;52.602;13.434;2024-03-02T01:42:30;99935.09;;;4.78;100.00
80509;BME280;69838;52.602;13.434;2024-03-02T01:43:16;99931.63;;;4.76;100.00
80509;BME280;69838;52.602;13.434;2024-03-02T01:44:02;99937.84;;;4.77;100.00
80509;BME280;69838;52.602;13.434;2024-03-02T01:44:48;99936.91;;;4.78;100.00
80509;BME280;69838;52.602;13.434;2024-03-02T01:45:34;99934.34;;;4.75;100.00
80509;BME280;69838;52.602;13.434;2024-03-02T01:46:20;99939.66;;;4.76;100.00
80509;BME280;69838;52.602;13.434;2024-03-02T01:47:06;99935.16;;;4.77;100.00
80509;BME280;69838;52.602;13.434;2024-03-02T01:47:52;99937.78;;;4.78;100.00
80509;BME280;69838;52.602;13.434;2024-03-02T01:48:38;99929.75;;;4.78;100.00
80509;BME280;69838;52.602;13.434;2024-03-02T01:49:23;99934.19;;;4.80;100.00
80509;BME280;69838;52.602;13.434;2024-03-02T01:50:11;99935.88;;;4.82;100.00
80509;BME280;69838;52.602;13.434;2024-03-02T01:50:58;99929.53;;;4.85;100.00
80509;BME280;69838;52.602;13.434;2024-03-02T01:51:44;99932.13;;;4.86;100.00
80509;BME280;69838;52.602;13.434;2024-03-02T01:52:29;99925.00;;;4.87;100.00
80509;BME280;69838;52.602;13.434;2024-03-02T01:53:16;99926.63;;;4.91;100.00
80509;BME280;69838;52.602;13.434;2024-03-02T01:54:01;99926.56;;;4.92;100.00
80509;BME280;69838;52.602;13.434;2024-03-02T01:54:48;99923.84;;;4.94;100.00
80509;BME280;69838;52.602;13.434;2024-03-02T01:55:33;99916.69;;;4.94;100.00
80509;BME280;69838;52.602;13.434;2024-03-02T01:56:19;99918.44;;;4.95;100.00
80509;BME280;69838;52.602;13.434;2024-03-02T01:57:06;99918.44;;;4.95;100.00
80509;BME280;69838;52.602;13.434;2024-03-02T01:57:53;99920.22;;;4.95;100.00
80509;BME280;69838;52.602;13.434;2024-03-02T01:58:39;99915.81;;;4.94;100.00
80509;BME280;69838;52.602;13.434;2024-03-02T01:59:25;99916.63;;;4.96;100.00
80509;BME280;69838;52.602;13.434;2024-03-02T02:00:12;99910.41;;;4.95;100.00
80509;BME280;69838;52.602;13.434;2024-03-02T02:00:58;99908.59;;;4.96;100.00
80509;BME280;69838;52.602;13.434;2024-03-02T02:01:44;99905.88;;;4.97;100.00
80509;BME280;69838;52.602;13.434;2024-03-02T02:02:30;99905.91;;;4.96;100.00
80509;BME280;69838;52.602;13.434;2024-03-02T02:03:15;99905.91;;;4.96;100.00
80509;BME280;69838;52.602;13.434;2024-03-02T02:04:02;99901.53;;;4.93;100.00
80509;BME280;69838;52.602;13.434;2024-03-02T02:04:48;99894.41;;;4.94;100.00
80509;BME280;69838;52.602;13.434;2024-03-02T02:05:33;99898.75;;;4.96;100.00
80509;BME280;69838;52.602;13.434;2024-03-02T02:06:20;99897.91;;;4.96;100.00
80509;BME280;69838;52.602;13.434;2024-03-02T02:07:06;99904.09;;;4.96;100.00
80509;BME280;69838;52.602;13.434;2024-03-02T02:07:52;99898.72;;;4.98;100.00
80509;BME280;69838;52.602;13.434;2024-03-02T02:08:38;99896.03;;;4.98;100.00
80509;BME280;69838;52.602;13.434;2024-03-02T02:09:24;99896.03;;;4.98;100.00
80509;BME280;69838;52.602;13.434;2024-03-02T02:10:10;99891.75;;;4.94;100.00
80509;BME280;69838;52.602;13.434;2024-03-02T02:10:56;99895.22;;;4.96;100.00
80509;BME280;69838;52.602;13.434;2024-03-02T02:11:42;99891.59;;;4.97;100.00
80509;BME280;69838;52.602;13.434;2024-03-02T02:12:27;99894.28;;;4.97;100.00
80509;BME280;69838;52.602;13.434;2024-03-02T02:13:15;99890.69;;;4.98;100.00
80509;BME280;69838;52.602;13.434;2024-03-02T02:14:00;99892.44;;;4.99;100.00
80509;BME280;69838;52.602;13.434;2024-03-02T02:14:49;99887.09;;;4.99;100.00
80509;BME280;69838;52.602;13.434;2024-03-02T02:15:36;99888.88;;;4.98;100.00
80509;BME280;69838;52.602;13.434;2024-03-02T02:16:21;99891.69;;;4.95;100.00
80509;BME280;69838;52.602;13.434;2024-03-02T02:17:07;99889.81;;;4.97;100.00
80509;BME280;69838;52.602;13.434;2024-03-02T02:17:54;99884.47;;;4.97;100.00
80509;BME280;69838;52.602;13.434;2024-03-02T02:18:39;99890.72;;;4.96;100.00
80509;BME280;69838;52.602;13.434;2024-03-02T02:19:25;99890.78;;;4.95;100.00
80509;BME280;69838;52.602;13.434;2024-03-02T02:20:11;99890.94;;;4.92;100.00
80509;BME280;69838;52.602;13.434;2024-03-02T02:20:56;99888.31;;;4.90;100.00
80509;BME280;69838;52.602;13.434;2024-03-02T02:21:44;99887.56;;;4.87;100.00
80509;BME280;69838;52.602;13.434;2024-03-02T02:22:29;99890.25;;;4.87;100.00
80509;BME280;69838;52.602;13.434;2024-03-02T02:23:15;99893.81;;;4.86;100.00
80509;BME280;69838;52.602;13.434;2024-03-02T02:24:01;99890.25;;;4.87;100.00
80509;BME280;69838;52.602;13.434;2024-03-02T02:24:48;99891.03;;;4.89;100.00
80509;BME280;69838;52.602;13.434;2024-03-02T02:25:34;99890.09;;;4.90;100.00
80509;BME280;69838;52.602;13.434;2024-03-02T02:26:20;99889.19;;;4.91;100.00
80509;BME280;69838;52.602;13.434;2024-03-02T02:27:05;99892.78;;;4.90;100.00
80509;BME280;69838;52.602;13.434;2024-03-02T02:27:51;99890.03;;;4.91;100.00
80509;BME280;69838;52.602;13.434;2024-03-02T02:28:36;99893.66;;;4.90;100.00
80509;BME280;69838;52.602;13.434;2024-03-02T02:29:23;99882.97;;;4.90;100.00
80509;BME280;69838;52.602;13.434;2024-03-02T02:30:09;99884.75;;;4.90;100.00
80509;BME280;69838;52.602;13.434;2024-03-02T02:30:55;99887.31;;;4.93;100.00
80509;BME280;69838;52.602;13.434;2024-03-02T02:31:42;99882.81;;;4.93;100.00
80509;BME280;69838;52.602;13.434;2024-03-02T02:32:27;99885.44;;;4.95;100.00
80509;BME280;69838;52.602;13.434;2024-03-02T02:33:13;99886.25;;;4.97;100.00
80509;BME280;69838;52.602;13.434;2024-03-02T02:33:59;99881.84;;;4.96;100.00
80509;BME280;69838;52.602;13.434;2024-03-02T02:34:44;99881.84;;;4.96;100.00
80509;BME280;69838;52.602;13.434;2024-03-02T02:35:30;99885.44;;;4.95;100.00
80509;BME280;69838;52.602;13.434;2024-03-02T02:36:16;99883.56;;;4.97;100.00
80509;BME280;69838;52.602;13.434;2024-03-02T02:37:03;99892.53;;;4.96;100.00
80509;BME280;69838;52.602;13.434;2024-03-02T02:37:49;99889.88;;;4.96;100.00
80509;BME280;69838;52.602;13.434;2024-03-02T02:38:39;99884.53;;;4.96;100.00
80509;BME280;69838;52.602;13.434;2024-03-02T02:39:25;99880.03;;;4.96;100.00
80509;BME280;69838;52.602;13.434;2024-03-02T02:40:12;99888.91;;;4.97;100.00
80509;BME280;69838;52.602;13.434;2024-03-02T02:40:58;99879.13;;;4.97;100.00
80509;BME280;69838;52.602;13.434;2024-03-02T02:41:44;99890.69;;;4.98;100.00
80509;BME280;69838;52.602;13.434;2024-03-02T02:42:29;99888.91;;;4.97;100.00
80509;BME280;69838;52.602;13.434;2024-03-02T02:43:15;99886.25;;;4.97;100.00
80509;BME280;69838;52.602;13.434;2024-03-02T02:44:01;99879.22;;;4.94;100.00
80509;BME280;69838;52.602;13.434;2024-03-02T02:44:47;99885.44;;;4.95;100.00
80509;BME280;69838;52.602;13.434;2024-03-02T02:45:33;99887.19;;;4.96;100.00
80509;BME280;69838;52.602;13.434;2024-03-02T02:46:19;99887.19;;;4.96;100.00
80509;BME280;69838;52.602;13.434;2024-03-02T02:47:04;99888.91;;;4.97;100.00
80509;BME280;69838;52.602;13.434;2024-03-02T02:47:51;99882.66;;;4.98;100.00
80509;BME280;69838;52.602;13.434;2024-03-02T02:48:36;99883.50;;;4.98;100.00
80509;BME280;69838;52.602;13.434;2024-03-02T02:49:22;99890.56;;;5.01;100.00
80509;BME280;69838;52.602;13.434;2024-03-02T02:50:08;99889.56;;;5.04;100.00
80509;BME280;69838;52.602;13.434;2024-03-02T02:50:54;99887.75;;;5.04;100.00
80509;BME280;69838;52.602;13.434;2024-03-02T02:51:40;99889.50;;;5.05;100.00
80509;BME280;69838;52.602;13.434;2024-03-02T02:52:30;99894.06;;;5.03;100.00
80509;BME280;69838;52.602;13.434;2024-03-02T02:53:18;99898.59;;;5.01;100.00
80509;BME280;69838;52.602;13.434;2024-03-02T02:54:03;99894.06;;;5.03;100.00
80509;BME280;69838;52.602;13.434;2024-03-02T02:54:49;99899.41;;;5.03;100.00
80509;BME280;69838;52.602;13.434;2024-03-02T02:55:35;99897.63;;;5.02;100.00
80509;BME280;69838;52.602;13.434;2024-03-02T02:56:23;99902.19;;;5.00;100.00
80509;BME280;69838;52.602;13.434;2024-03-02T02:57:09;99895.03;;;5.01;100.00
80509;BME280;69838;52.602;13.434;2024-03-02T02:57:54;99905.66;;;5.02;100.00
80509;BME280;69838;52.602;13.434;2024-03-02T02:58:41;99897.53;;;5.05;100.00
80509;BME280;69838;52.602;13.434;2024-03-02T02:59:26;99900.16;;;5.07;100.00
80509;BME280;69838;52.602;13.434;2024-03-02T03:00:13;99901.97;;;5.06;100.00
80509;BME280;69838;52.602;13.434;2024-03-02T03:01:00;99893.94;;;5.06;100.00
80509;BME280;69838;52.602;13.434;2024-03-02T03:01:45;99903.63;;;5.09;100.00
80509;BME280;69838;52.602;13.434;2024-03-02T03:02:31;99894.75;;;5.08;100.00
80509;BME280;69838;52.602;13.434;2024-03-02T03:03:18;99896.47;;;5.09;100.00
80509;BME280;69838;52.602;13.434;2024-03-02T03:04:03;99897.41;;;5.08;100.00
80509;BME280;69838;52.602;13.434;2024-03-02T03:04:49;99902.63;;;5.11;100.00
80509;BME280;69838;52.602;13.434;2024-03-02T03:05:35;99901.59;;;5.15;100.00
80509;BME280;69838;52.602;13.434;2024-03-02T03:06:20;99903.22;;;5.20;100.00
80509;BME280;69838;52.602;13.434;2024-03-02T03:07:06;99900.53;;;5.20;100.00
80509;BME280;69838;52.602;13.434;2024-03-02T03:07:54;99905.78;;;5.23;100.00
80509;BME280;69838;52.602;13.434;2024-03-02T03:08:39;99905.72;;;5.24;100.00
80509;BME280;69838;52.602;13.434;2024-03-02T03:09:25;99900.22;;;5.27;100.00
80509;BME280;69838;52.602;13.434;2024-03-02T03:10:11;99902.03;;;5.27;100.00
80509;BME280;69838;52.602;13.434;2024-03-02T03:10:57;99903.78;;;5.28;100.00
80509;BME280;69838;52.602;13.434;2024-03-02T03:11:42;99902.78;;;5.30;100.00
80509;BME280;69838;52.602;13.434;2024-03-02T03:12:29;99894.81;;;5.29;100.00
80509;BME280;69838;52.602;13.434;2024-03-02T03:13:14;99900.72;;;5.37;100.00
80509;BME280;69838;52.602;13.434;2024-03-02T03:14:01;99903.16;;;5.43;100.00
80509;BME280;69838;52.602;13.434;2024-03-02T03:14:46;99901.38;;;5.44;100.00
80509;BME280;69838;52.602;13.434;2024-03-02T03:15:32;99904.91;;;5.44;100.00
80509;BME280;69838;52.602;13.434;2024-03-02T03:16:18;99902.28;;;5.43;100.00
80509;BME280;69838;52.602;13.434;2024-03-02T03:17:04;99899.56;;;5.44;100.00
80509;BME280;69838;52.602;13.434;2024-03-02T03:17:49;99901.28;;;5.45;100.00
80509;BME280;69838;52.602;13.434;2024-03-02T03:18:36;99906.50;;;5.48;100.00
80509;BME280;69838;52.602;13.434;2024-03-02T03:19:21;99901.03;;;5.51;100.00
80509;BME280;69838;52.602;13.434;2024-03-02T03:20:07;99897.41;;;5.52;100.00
80509;BME280;69838;52.602;13.434;2024-03-02T03:20:55;99906.28;;;5.54;100.00
80509;BME280;69838;52.602;13.434;2024-03-02T03:21:41;99898.09;;;5.58;100.00
80509;BME280;69838;52.602;13.434;2024-03-02T03:22:28;99901.56;;;5.60;100.00
80509;BME280;69838;52.602;13.434;2024-03-02T03:23:16;99898.91;;;5.60;100.00
80509;BME280;69838;52.602;13.434;2024-03-02T03:24:02;99903.16;;;5.65;100.00
80509;BME280;69838;52.602;13.434;2024-03-02T03:24:49;99896.78;;;5.68;100.00
80509;BME280;69838;52.602;13.434;2024-03-02T03:25:34;99898.53;;;5.69;100.00
80509;BME280;69838;52.602;13.434;2024-03-02T03:26:19;99897.66;;;5.68;100.00
80509;BME280;69838;52.602;13.434;2024-03-02T03:27:06;99896.78;;;5.68;100.00
80509;BME280;69838;52.602;13.434;2024-03-02T03:27:51;99895.88;;;5.69;100.00
80509;BME280;69838;52.602;13.434;2024-03-02T03:28:37;99895.72;;;5.72;100.00
80509;BME280;69838;52.602;13.434;2024-03-02T03:29:24;99899.13;;;5.76;100.00
80509;BME280;69838;52.602;13.434;2024-03-02T03:30:10;99903.56;;;5.77;100.00
80509;BME280;69838;52.602;13.434;2024-03-02T03:30:56;99900.09;;;5.74;100.00
80509;BME280;69838;52.602;13.434;2024-03-02T03:31:42;99904.63;;;5.72;100.00
80509;BME280;69838;52.602;13.434;2024-03-02T03:32:27;99899.28;;;5.72;100.00
80509;BME280;69838;52.602;13.434;2024-03-02T03:33:13;99900.38;;;5.67;100.00
80509;BME280;69838;52.602;13.434;2024-03-02T03:33:59;99902.19;;;5.66;100.00
80509;BME280;69838;52.602;13.434;2024-03-02T03:34:45;99901.28;;;5.67;100.00
80509;BME280;69838;52.602;13.434;2024-03-02T03:35:30;99896.78;;;5.68;100.00
80509;BME280;69838;52.602;13.434;2024-03-02T03:36:17;99901.22;;;5.69;100.00
80509;BME280;69838;52.602;13.434;2024-03-02T03:37:02;99902.13;;;5.68;100.00
80509;BME280;69838;52.602;13.434;2024-03-02T03:37:48;99899.41;;;5.69;100.00
80509;BME280;69838;52.602;13.434;2024-03-02T03:38:35;99903.75;;;5.72;100.00
80509;BME280;69838;52.602;13.434;2024-03-02T03:39:21;99897.47;;;5.73;100.00
80509;BME280;69838;52.602;13.434;2024-03-02T03:40:07;99903.69;;;5.73;100.00
80509;BME280;69838;52.602;13.434;2024-03-02T03:40:55;99900.94;;;5.75;100.00
80509;BME280;69838;52.602;13.434;2024-03-02T03:41:40;99891.16;;;5.74;100.00
80509;BME280;69838;52.602;13.434;2024-03-02T03:42:26;99901.75;;;5.77;100.00
80509;BME280;69838;52.602;13.434;2024-03-02T03:43:12;99898.16;;;5.78;100.00
80509;BME280;69838;52.602;13.434;2024-03-02T03:43:58;99892.00;;;5.76;100.00
80509;BME280;69838;52.602;13.434;2024-03-02T03:44:44;99895.53;;;5.77;100.00
80509;BME280;69838;52.602;13.434;2024-03-02T03:45:29;99899.88;;;5.79;100.00
80509;BME280;69838;52.602;13.434;2024-03-02T03:46:15;99901.75;;;5.77;100.00
80509;BME280;69838;52.602;13.434;2024-03-02T03:47:03;99908.88;;;5.78;100.00
80509;BME280;69838;52.602;13.434;2024-03-02T03:47:48;99891.91;;;5.78;100.00
80509;BME280;69838;52.602;13.434;2024-03-02T03:48:34;99898.16;;;5.78;100.00
80509;BME280;69838;52.602;13.434;2024-03-02T03:49:20;99889.31;;;5.76;100.00
80509;BME280;69838;52.602;13.434;2024-03-02T03:50:06;99899.88;;;5.79;100.00
80509;BME280;69838;52.602;13.434;2024-03-02T03:50:52;99893.72;;;5.77;100.00
80509;BME280;69838;52.602;13.434;2024-03-02T03:51:38;99901.75;;;5.77;100.00
80509;BME280;69838;52.602;13.434;2024-03-02T03:52:24;99903.50;;;5.78;100.00
80509;BME280;69838;52.602;13.434;2024-03-02T03:53:09;99897.25;;;5.78;100.00
80509;BME280;69838;52.602;13.434;2024-03-02T03:53:57;99898.94;;;5.80;100.00
80509;BME280;69838;52.602;13.434;2024-03-02T03:54:42;99901.63;;;5.80;100.00
80509;BME280;69838;52.602;13.434;2024-03-02T03:55:29;99899.81;;;5.81;100.00
80509;BME280;69838;52.602;13.434;2024-03-02T03:56:16;99896.16;;;5.83;100.00
80509;BME280;69838;52.602;13.434;2024-03-02T03:57:01;99896.16;;;5.83;100.00
80509;BME280;69838;52.602;13.434;2024-03-02T03:57:46;99896.00;;;5.86;100.00
80509;BME280;69838;52.602;13.434;2024-03-02T03:58:32;99899.63;;;5.85;100.00
80509;BME280;69838;52.602;13.434;2024-03-02T03:59:18;99893.31;;;5.86;100.00
80509;BME280;69838;52.602;13.434;2024-03-02T04:00:05;99901.34;;;5.86;100.00
80509;BME280;69838;52.602;13.434;2024-03-02T04:00:50;99897.75;;;5.87;100.00
80509;BME280;69838;52.602;13.434;2024-03-02T04:01:37;99896.78;;;5.88;100.00
80509;BME280;69838;52.602;13.434;2024-03-02T04:02:22;99900.31;;;5.90;100.00